Time,TemperatureF,DewpointF,PressureIn,WindDirection,WindDirectionDegrees,WindSpeedMPH,WindSpeedGustMPH,Humidity,HourlyPrecipIn,Conditions,Clouds,dailyrainin,SolarRadiationWatts/m^2,SoftwareType,DateUTC
2013-07-03 00:02:00,64.0,56.0,-100.00,East,82,2.0,4.0,75,0.00,,,0.00,0.000000,,2013-07-03 07:02:00,
2013-07-03 00:39:00,62.0,56.0,-100.00,East,82,3.0,7.0,80,0.00,,,0.00,0.000000,,2013-07-03 07:39:00,
2013-07-03 00:47:00,62.0,56.0,-100.00,East,82,3.0,7.0,80,0.00,,,0.00,0.000000,,2013-07-03 07:47:00,
2013-07-03 00:58:00,62.0,56.0,-100.00,East,82,3.0,7.0,80,0.00,,,0.00,0.000000,,2013-07-03 07:58:00,
2013-07-03 01:45:00,60.0,55.0,-100.00,ENE,74,1.0,6.0,83,0.00,,,0.00,0.000000,,2013-07-03 08:45:00,
2013-07-03 01:56:00,60.0,55.0,-100.00,ENE,74,1.0,6.0,83,0.00,,,0.00,0.000000,,2013-07-03 08:56:00,
2013-07-03 02:02:00,60.0,55.0,-100.00,ENE,74,1.0,6.0,83,0.00,,,0.00,0.000000,,2013-07-03 09:02:00,
2013-07-03 02:47:00,60.0,55.0,-100.00,East,90,0.0,3.0,83,0.00,,,-99.99,0.000000,,2013-07-03 09:47:00,
2013-07-03 02:57:00,60.0,55.0,-100.00,East,90,0.0,3.0,83,0.00,,,-99.99,0.000000,,2013-07-03 09:57:00,
2013-07-03 03:02:00,60.0,55.0,-100.00,East,90,0.0,3.0,83,0.00,,,-99.99,0.000000,,2013-07-03 10:02:00,
2013-07-03 03:37:00,60.0,54.0,-100.00,NE,53,1.0,5.0,82,0.00,,,0.00,0.000000,,2013-07-03 10:37:00,
2013-07-03 03:45:00,60.0,54.0,-100.00,NE,53,1.0,5.0,82,0.00,,,0.00,0.000000,,2013-07-03 10:45:00,
2013-07-03 03:55:00,60.0,54.0,-100.00,NE,53,1.0,5.0,82,0.00,,,0.00,0.000000,,2013-07-03 10:55:00,
2013-07-03 04:02:00,60.0,54.0,-100.00,NE,53,1.0,5.0,82,0.00,,,0.00,0.000000,,2013-07-03 11:02:00,
2013-07-03 04:38:00,59.0,54.0,-100.00,NNE,31,2.0,7.0,84,0.00,,,0.00,0.000000,,2013-07-03 11:38:00,
2013-07-03 04:43:00,59.0,54.0,-100.00,NNE,31,2.0,7.0,84,0.00,,,0.00,0.000000,,2013-07-03 11:43:00,
2013-07-03 04:55:00,59.0,54.0,-100.00,NNE,31,2.0,7.0,84,0.00,,,0.00,0.000000,,2013-07-03 11:55:00,
2013-07-03 05:02:00,59.0,54.0,-100.00,NNE,31,2.0,7.0,84,0.00,,,0.00,0.000000,,2013-07-03 12:02:00,
2013-07-03 05:37:00,58.0,54.0,-100.00,ENE,71,1.0,3.0,86,0.00,,,0.00,0.000000,,2013-07-03 12:37:00,
2013-07-03 05:45:00,58.0,54.0,-100.00,ENE,71,1.0,3.0,86,0.00,,,0.00,0.000000,,2013-07-03 12:45:00,
2013-07-03 05:58:00,58.0,54.0,-100.00,ENE,71,1.0,3.0,86,0.00,,,0.00,0.000000,,2013-07-03 12:58:00,
2013-07-03 07:03:00,57.0,53.0,-100.00,SW,233,0.0,4.0,88,0.00,,,0.00,2.000000,,2013-07-03 14:03:00,
2013-07-03 07:47:00,58.0,54.0,-100.00,South,181,0.0,2.0,86,0.00,,,0.00,20.000000,,2013-07-03 14:47:00,
2013-07-03 07:54:00,58.0,54.0,-100.00,South,181,0.0,2.0,86,0.00,,,0.00,20.000000,,2013-07-03 14:54:00,
2013-07-03 08:38:00,69.0,54.0,-100.00,ENE,70,3.0,5.0,59,0.00,,,0.00,210.000000,,2013-07-03 15:38:00,
2013-07-03 08:47:00,69.0,54.0,-100.00,ENE,70,3.0,5.0,59,0.00,,,0.00,210.000000,,2013-07-03 15:47:00,
2013-07-03 08:57:00,69.0,54.0,-100.00,ENE,70,3.0,5.0,59,0.00,,,0.00,210.000000,,2013-07-03 15:57:00,
2013-07-03 09:03:00,69.0,54.0,-100.00,ENE,70,3.0,5.0,59,0.00,,,0.00,210.000000,,2013-07-03 16:03:00,
2013-07-03 09:40:00,77.0,52.0,-100.00,ENE,75,2.0,5.0,42,0.00,,,0.00,391.000000,,2013-07-03 16:40:00,
2013-07-03 09:46:00,77.0,52.0,-100.00,ENE,75,2.0,5.0,42,0.00,,,0.00,391.000000,,2013-07-03 16:46:00,
2013-07-03 09:57:00,77.0,52.0,-100.00,ENE,75,2.0,5.0,42,0.00,,,0.00,391.000000,,2013-07-03 16:57:00,
2013-07-03 10:02:00,77.0,52.0,-100.00,ENE,75,2.0,5.0,42,0.00,,,0.00,391.000000,,2013-07-03 17:02:00,
2013-07-03 20:36:00,84.0,53.0,-100.00,East,93,4.0,11.0,34,-99.99,,,0.00,67.000000,,2013-07-04 03:36:00,
2013-07-03 20:46:00,84.0,53.0,-100.00,East,93,4.0,11.0,34,-99.99,,,0.00,67.000000,,2013-07-04 03:46:00,
2013-07-03 20:56:00,84.0,53.0,-100.00,East,93,4.0,11.0,34,-99.99,,,0.00,67.000000,,2013-07-04 03:56:00,
2013-07-03 21:22:00,79.0,54.0,-100.00,ENE,61,0.0,8.0,42,-99.99,,,0.00,4.000000,,2013-07-04 04:22:00,
2013-07-03 21:33:00,79.0,54.0,-100.00,ENE,61,0.0,8.0,42,-99.99,,,0.00,4.000000,,2013-07-04 04:33:00,
2013-07-03 21:43:00,79.0,54.0,-100.00,ENE,61,0.0,8.0,42,-99.99,,,0.00,4.000000,,2013-07-04 04:43:00,
2013-07-03 21:52:00,79.0,54.0,-100.00,ENE,61,0.0,8.0,42,-99.99,,,0.00,4.000000,,2013-07-04 04:52:00,
2013-07-03 22:22:00,75.0,55.0,-100.00,NE,50,0.0,5.0,49,-99.99,,,0.00,0.000000,,2013-07-04 05:22:00,
2013-07-03 22:33:00,75.0,55.0,-100.00,NE,50,0.0,5.0,49,-99.99,,,0.00,0.000000,,2013-07-04 05:33:00,
2013-07-03 22:43:00,75.0,55.0,-100.00,NE,50,0.0,5.0,49,-99.99,,,0.00,0.000000,,2013-07-04 05:43:00,
2013-07-03 22:52:00,75.0,55.0,-100.00,NE,50,0.0,5.0,49,-99.99,,,0.00,0.000000,,2013-07-04 05:52:00,
2013-07-03 23:34:00,72.0,54.0,-100.00,ENE,67,1.0,3.0,53,-99.99,,,0.00,0.000000,,2013-07-04 06:34:00,
2013-07-03 23:43:00,72.0,54.0,-100.00,ENE,67,1.0,3.0,53,-99.99,,,0.00,0.000000,,2013-07-04 06:43:00,
2013-07-03 23:53:00,72.0,54.0,-100.00,ENE,67,1.0,3.0,53,-99.99,,,0.00,0.000000,,2013-07-04 06:53:00,